Schedule Details


Flight Number: CTN477
Departure: Charles-de-gaulle (LFPG) at 12:05
Arrival: Cilipi (LDDU) at 14:20
Route: LANVI UN491 BEGAR UQ341 RESIA Q333 BABAG N606 PEVAL UN606 SPL UL607 NERRA

Weather Information
LFPG 290300Z 24011KT 9999 -SHRA SCT040 BKN060 05/02 Q1009 NOSIG
LDDU 290300Z 24008KT 200V290 9999 FEW025 BKN035 13/10 Q1009 TEMPO 30015G25KT TSRA FEW025CB BKN035
Schedule Frequency

Route Map